sensor_id;sensor_type;location;lat;lon;timestamp;P1;durP1;ratioP1;P2;durP2;ratioP2
17361;SDS011;8798;51.938;4.348;2022-09-09T00:01:59;4.47;;;2.00;;
17361;SDS011;8798;51.938;4.348;2022-09-09T00:04:30;2.93;;;2.13;;
17361;SDS011;8798;51.938;4.348;2022-09-09T00:07:04;5.20;;;2.00;;
17361;SDS011;8798;51.938;4.348;2022-09-09T00:09:39;3.90;;;1.67;;
17361;SDS011;8798;51.938;4.348;2022-09-09T00:12:15;4.83;;;1.90;;
17361;SDS011;8798;51.938;4.348;2022-09-09T00:14:51;6.17;;;1.97;;
17361;SDS011;8798;51.938;4.348;2022-09-09T00:17:30;4.07;;;1.60;;
17361;SDS011;8798;51.938;4.348;2022-09-09T00:20:09;3.67;;;1.70;;
17361;SDS011;8798;51.938;4.348;2022-09-09T00:22:41;5.30;;;1.70;;
17361;SDS011;8798;51.938;4.348;2022-09-09T00:25:15;3.53;;;1.57;;
17361;SDS011;8798;51.938;4.348;2022-09-09T00:27:49;5.60;;;1.70;;
17361;SDS011;8798;51.938;4.348;2022-09-09T00:30:18;2.80;;;1.33;;
17361;SDS011;8798;51.938;4.348;2022-09-09T00:32:50;3.90;;;1.70;;
17361;SDS011;8798;51.938;4.348;2022-09-09T00:35:25;2.40;;;1.40;;
17361;SDS011;8798;51.938;4.348;2022-09-09T00:37:58;4.83;;;1.30;;
17361;SDS011;8798;51.938;4.348;2022-09-09T00:40:31;3.67;;;1.40;;
17361;SDS011;8798;51.938;4.348;2022-09-09T00:43:06;4.10;;;1.60;;
17361;SDS011;8798;51.938;4.348;2022-09-09T00:46:05;3.67;;;1.30;;
17361;SDS011;8798;51.938;4.348;2022-09-09T00:48:54;2.80;;;1.57;;
17361;SDS011;8798;51.938;4.348;2022-09-09T00:51:35;2.90;;;1.20;;
17361;SDS011;8798;51.938;4.348;2022-09-09T00:54:23;3.37;;;1.10;;
17361;SDS011;8798;51.938;4.348;2022-09-09T00:57:03;4.23;;;1.57;;
17361;SDS011;8798;51.938;4.348;2022-09-09T00:59:50;5.47;;;1.53;;
17361;SDS011;8798;51.938;4.348;2022-09-09T01:02:24;4.10;;;1.30;;
17361;SDS011;8798;51.938;4.348;2022-09-09T01:04:58;4.97;;;1.80;;
17361;SDS011;8798;51.938;4.348;2022-09-09T01:07:31;4.53;;;1.70;;
17361;SDS011;8798;51.938;4.348;2022-09-09T01:09:59;3.53;;;1.37;;
17361;SDS011;8798;51.938;4.348;2022-09-09T01:12:34;2.93;;;1.43;;
17361;SDS011;8798;51.938;4.348;2022-09-09T01:15:10;3.53;;;1.20;;
17361;SDS011;8798;51.938;4.348;2022-09-09T01:17:50;3.77;;;1.20;;
17361;SDS011;8798;51.938;4.348;2022-09-09T01:20:27;4.43;;;1.27;;
17361;SDS011;8798;51.938;4.348;2022-09-09T01:23:03;3.27;;;1.17;;
17361;SDS011;8798;51.938;4.348;2022-09-09T01:28:43;3.97;;;1.10;;
17361;SDS011;8798;51.938;4.348;2022-09-09T01:31:14;5.47;;;1.40;;
17361;SDS011;8798;51.938;4.348;2022-09-09T01:33:44;3.13;;;1.07;;
17361;SDS011;8798;51.938;4.348;2022-09-09T01:36:14;3.40;;;1.23;;
17361;SDS011;8798;51.938;4.348;2022-09-09T01:38:52;2.70;;;1.00;;
17361;SDS011;8798;51.938;4.348;2022-09-09T01:41:21;2.20;;;0.80;;
17361;SDS011;8798;51.938;4.348;2022-09-09T01:43:49;2.50;;;0.80;;
17361;SDS011;8798;51.938;4.348;2022-09-09T01:46:18;2.30;;;0.80;;
17361;SDS011;8798;51.938;4.348;2022-09-09T01:48:48;4.70;;;1.00;;
17361;SDS011;8798;51.938;4.348;2022-09-09T01:51:18;2.43;;;0.80;;
17361;SDS011;8798;51.938;4.348;2022-09-09T01:53:46;2.03;;;0.77;;
17361;SDS011;8798;51.938;4.348;2022-09-09T01:56:21;2.17;;;0.70;;
17361;SDS011;8798;51.938;4.348;2022-09-09T01:59:05;4.07;;;0.73;;
17361;SDS011;8798;51.938;4.348;2022-09-09T02:01:46;2.63;;;0.90;;
17361;SDS011;8798;51.938;4.348;2022-09-09T02:04:27;1.80;;;0.73;;
17361;SDS011;8798;51.938;4.348;2022-09-09T02:07:04;2.33;;;1.10;;
17361;SDS011;8798;51.938;4.348;2022-09-09T02:09:38;2.23;;;1.03;;
17361;SDS011;8798;51.938;4.348;2022-09-09T02:12:12;2.60;;;0.80;;
17361;SDS011;8798;51.938;4.348;2022-09-09T02:14:47;5.90;;;1.00;;
17361;SDS011;8798;51.938;4.348;2022-09-09T02:17:19;3.77;;;1.00;;
17361;SDS011;8798;51.938;4.348;2022-09-09T02:19:54;4.27;;;0.80;;
17361;SDS011;8798;51.938;4.348;2022-09-09T02:22:27;2.77;;;0.90;;
17361;SDS011;8798;51.938;4.348;2022-09-09T02:25:00;3.57;;;0.83;;
17361;SDS011;8798;51.938;4.348;2022-09-09T02:27:32;3.37;;;1.00;;
17361;SDS011;8798;51.938;4.348;2022-09-09T02:30:01;2.10;;;0.90;;
17361;SDS011;8798;51.938;4.348;2022-09-09T02:32:32;2.97;;;0.90;;
17361;SDS011;8798;51.938;4.348;2022-09-09T02:35:03;2.30;;;0.90;;
17361;SDS011;8798;51.938;4.348;2022-09-09T02:37:37;2.67;;;1.00;;
17361;SDS011;8798;51.938;4.348;2022-09-09T02:40:07;4.83;;;1.00;;
17361;SDS011;8798;51.938;4.348;2022-09-09T02:42:42;2.70;;;0.73;;
17361;SDS011;8798;51.938;4.348;2022-09-09T02:45:12;3.70;;;0.93;;
17361;SDS011;8798;51.938;4.348;2022-09-09T02:47:44;2.77;;;0.67;;
17361;SDS011;8798;51.938;4.348;2022-09-09T02:50:19;5.17;;;0.73;;
17361;SDS011;8798;51.938;4.348;2022-09-09T02:52:58;4.97;;;0.90;;
17361;SDS011;8798;51.938;4.348;2022-09-09T02:55:37;3.73;;;0.77;;
17361;SDS011;8798;51.938;4.348;2022-09-09T02:58:07;5.17;;;0.97;;
17361;SDS011;8798;51.938;4.348;2022-09-09T03:00:39;2.23;;;1.00;;
17361;SDS011;8798;51.938;4.348;2022-09-09T03:03:07;3.53;;;1.00;;
17361;SDS011;8798;51.938;4.348;2022-09-09T03:05:36;1.97;;;0.83;;
17361;SDS011;8798;51.938;4.348;2022-09-09T03:08:05;3.90;;;1.03;;
17361;SDS011;8798;51.938;4.348;2022-09-09T03:10:33;2.57;;;0.90;;
17361;SDS011;8798;51.938;4.348;2022-09-09T03:13:01;2.97;;;0.90;;
17361;SDS011;8798;51.938;4.348;2022-09-09T03:15:32;4.50;;;1.30;;
17361;SDS011;8798;51.938;4.348;2022-09-09T03:18:00;2.90;;;0.90;;
17361;SDS011;8798;51.938;4.348;2022-09-09T03:20:28;2.13;;;0.63;;
17361;SDS011;8798;51.938;4.348;2022-09-09T03:22:57;2.77;;;1.20;;
17361;SDS011;8798;51.938;4.348;2022-09-09T03:25:26;1.33;;;0.90;;
17361;SDS011;8798;51.938;4.348;2022-09-09T03:27:54;1.70;;;0.90;;
17361;SDS011;8798;51.938;4.348;2022-09-09T03:30:22;2.47;;;1.00;;
17361;SDS011;8798;51.938;4.348;2022-09-09T03:32:52;4.33;;;1.10;;
17361;SDS011;8798;51.938;4.348;2022-09-09T03:35:21;2.23;;;0.80;;
17361;SDS011;8798;51.938;4.348;2022-09-09T03:37:48;2.87;;;0.90;;
17361;SDS011;8798;51.938;4.348;2022-09-09T03:40:16;1.83;;;0.90;;
17361;SDS011;8798;51.938;4.348;2022-09-09T03:42:45;3.17;;;0.80;;
17361;SDS011;8798;51.938;4.348;2022-09-09T03:45:14;2.70;;;1.00;;
17361;SDS011;8798;51.938;4.348;2022-09-09T03:47:43;3.00;;;1.10;;
17361;SDS011;8798;51.938;4.348;2022-09-09T03:50:12;1.40;;;0.70;;
17361;SDS011;8798;51.938;4.348;2022-09-09T03:52:40;2.57;;;0.77;;
17361;SDS011;8798;51.938;4.348;2022-09-09T03:55:08;3.20;;;0.80;;
17361;SDS011;8798;51.938;4.348;2022-09-09T03:57:36;3.73;;;0.90;;
17361;SDS011;8798;51.938;4.348;2022-09-09T04:00:05;3.33;;;1.00;;
17361;SDS011;8798;51.938;4.348;2022-09-09T04:02:34;3.90;;;1.37;;
17361;SDS011;8798;51.938;4.348;2022-09-09T04:05:02;3.97;;;1.00;;
17361;SDS011;8798;51.938;4.348;2022-09-09T04:07:31;2.57;;;0.97;;
17361;SDS011;8798;51.938;4.348;2022-09-09T04:09:59;2.27;;;1.00;;
17361;SDS011;8798;51.938;4.348;2022-09-09T04:12:27;2.33;;;1.00;;
17361;SDS011;8798;51.938;4.348;2022-09-09T04:14:54;2.27;;;0.77;;
17361;SDS011;8798;51.938;4.348;2022-09-09T04:17:23;4.97;;;1.07;;
17361;SDS011;8798;51.938;4.348;2022-09-09T04:19:51;1.83;;;1.07;;
17361;SDS011;8798;51.938;4.348;2022-09-09T04:22:18;3.60;;;0.93;;
17361;SDS011;8798;51.938;4.348;2022-09-09T04:24:47;5.10;;;1.20;;
17361;SDS011;8798;51.938;4.348;2022-09-09T04:27:15;4.17;;;1.13;;
17361;SDS011;8798;51.938;4.348;2022-09-09T04:29:43;4.53;;;1.13;;
17361;SDS011;8798;51.938;4.348;2022-09-09T04:32:10;3.10;;;1.10;;
17361;SDS011;8798;51.938;4.348;2022-09-09T04:34:38;2.53;;;1.10;;
17361;SDS011;8798;51.938;4.348;2022-09-09T04:37:07;5.90;;;1.67;;
17361;SDS011;8798;51.938;4.348;2022-09-09T04:39:36;4.30;;;1.30;;
17361;SDS011;8798;51.938;4.348;2022-09-09T04:42:05;3.70;;;1.30;;
17361;SDS011;8798;51.938;4.348;2022-09-09T04:44:33;2.97;;;1.10;;
17361;SDS011;8798;51.938;4.348;2022-09-09T04:47:01;5.77;;;1.30;;
17361;SDS011;8798;51.938;4.348;2022-09-09T04:49:29;2.53;;;1.00;;
17361;SDS011;8798;51.938;4.348;2022-09-09T04:51:57;1.67;;;0.90;;
17361;SDS011;8798;51.938;4.348;2022-09-09T04:54:25;2.33;;;1.10;;
17361;SDS011;8798;51.938;4.348;2022-09-09T04:56:53;1.87;;;0.90;;
17361;SDS011;8798;51.938;4.348;2022-09-09T04:59:23;3.63;;;1.57;;
17361;SDS011;8798;51.938;4.348;2022-09-09T05:01:51;3.27;;;1.30;;
17361;SDS011;8798;51.938;4.348;2022-09-09T05:04:21;3.00;;;1.30;;
17361;SDS011;8798;51.938;4.348;2022-09-09T05:06:49;6.30;;;1.63;;
17361;SDS011;8798;51.938;4.348;2022-09-09T05:09:16;3.70;;;1.20;;
17361;SDS011;8798;51.938;4.348;2022-09-09T05:11:44;2.27;;;1.07;;
17361;SDS011;8798;51.938;4.348;2022-09-09T05:14:12;3.70;;;1.20;;
17361;SDS011;8798;51.938;4.348;2022-09-09T05:16:42;2.80;;;1.43;;
17361;SDS011;8798;51.938;4.348;2022-09-09T05:19:11;7.00;;;1.30;;
17361;SDS011;8798;51.938;4.348;2022-09-09T05:21:39;7.83;;;1.70;;
17361;SDS011;8798;51.938;4.348;2022-09-09T05:24:07;3.87;;;1.20;;
17361;SDS011;8798;51.938;4.348;2022-09-09T05:26:35;2.57;;;1.10;;
17361;SDS011;8798;51.938;4.348;2022-09-09T05:29:03;3.97;;;1.37;;
17361;SDS011;8798;51.938;4.348;2022-09-09T05:31:30;9.07;;;1.13;;
17361;SDS011;8798;51.938;4.348;2022-09-09T05:34:00;4.13;;;1.20;;
17361;SDS011;8798;51.938;4.348;2022-09-09T05:36:28;3.30;;;1.17;;
17361;SDS011;8798;51.938;4.348;2022-09-09T05:38:56;6.83;;;1.23;;
17361;SDS011;8798;51.938;4.348;2022-09-09T05:41:23;3.57;;;1.07;;
17361;SDS011;8798;51.938;4.348;2022-09-09T05:43:51;3.47;;;1.50;;
17361;SDS011;8798;51.938;4.348;2022-09-09T05:46:20;4.57;;;1.30;;
17361;SDS011;8798;51.938;4.348;2022-09-09T05:48:49;2.50;;;1.10;;
17361;SDS011;8798;51.938;4.348;2022-09-09T05:51:20;4.83;;;1.63;;
17361;SDS011;8798;51.938;4.348;2022-09-09T05:53:48;6.00;;;1.50;;
17361;SDS011;8798;51.938;4.348;2022-09-09T05:56:17;5.13;;;1.37;;
17361;SDS011;8798;51.938;4.348;2022-09-09T05:58:46;2.03;;;1.20;;
17361;SDS011;8798;51.938;4.348;2022-09-09T06:01:16;3.20;;;1.00;;
17361;SDS011;8798;51.938;4.348;2022-09-09T06:03:45;2.97;;;1.20;;
17361;SDS011;8798;51.938;4.348;2022-09-09T06:06:15;6.60;;;1.40;;
17361;SDS011;8798;51.938;4.348;2022-09-09T06:08:49;4.37;;;1.40;;
17361;SDS011;8798;51.938;4.348;2022-09-09T06:11:20;6.57;;;1.83;;
17361;SDS011;8798;51.938;4.348;2022-09-09T06:13:48;6.33;;;1.30;;
17361;SDS011;8798;51.938;4.348;2022-09-09T06:16:18;4.07;;;1.30;;
17361;SDS011;8798;51.938;4.348;2022-09-09T06:18:46;5.10;;;1.53;;
17361;SDS011;8798;51.938;4.348;2022-09-09T06:21:16;4.63;;;1.57;;
17361;SDS011;8798;51.938;4.348;2022-09-09T06:23:44;1.90;;;0.93;;
17361;SDS011;8798;51.938;4.348;2022-09-09T06:26:15;3.60;;;1.17;;
17361;SDS011;8798;51.938;4.348;2022-09-09T06:28:44;3.87;;;1.57;;
17361;SDS011;8798;51.938;4.348;2022-09-09T06:31:15;4.70;;;1.40;;
17361;SDS011;8798;51.938;4.348;2022-09-09T06:33:53;6.20;;;1.50;;
17361;SDS011;8798;51.938;4.348;2022-09-09T06:36:22;2.57;;;1.20;;
17361;SDS011;8798;51.938;4.348;2022-09-09T06:38:50;2.30;;;1.20;;
17361;SDS011;8798;51.938;4.348;2022-09-09T06:41:20;5.77;;;1.83;;
17361;SDS011;8798;51.938;4.348;2022-09-09T06:43:50;4.00;;;1.63;;
17361;SDS011;8798;51.938;4.348;2022-09-09T06:46:18;5.27;;;1.67;;
17361;SDS011;8798;51.938;4.348;2022-09-09T06:48:47;3.60;;;1.63;;
17361;SDS011;8798;51.938;4.348;2022-09-09T06:51:17;5.90;;;1.80;;
17361;SDS011;8798;51.938;4.348;2022-09-09T06:53:47;5.53;;;1.97;;
17361;SDS011;8798;51.938;4.348;2022-09-09T06:56:22;5.77;;;2.00;;
17361;SDS011;8798;51.938;4.348;2022-09-09T06:58:51;4.50;;;1.63;;
17361;SDS011;8798;51.938;4.348;2022-09-09T07:01:21;4.97;;;1.90;;
17361;SDS011;8798;51.938;4.348;2022-09-09T07:03:50;4.33;;;1.40;;
17361;SDS011;8798;51.938;4.348;2022-09-09T07:06:21;7.30;;;1.87;;
17361;SDS011;8798;51.938;4.348;2022-09-09T07:08:51;5.83;;;1.30;;
17361;SDS011;8798;51.938;4.348;2022-09-09T07:11:24;4.87;;;1.70;;
17361;SDS011;8798;51.938;4.348;2022-09-09T07:13:53;9.93;;;2.03;;
17361;SDS011;8798;51.938;4.348;2022-09-09T07:16:21;4.90;;;1.63;;
17361;SDS011;8798;51.938;4.348;2022-09-09T07:18:51;3.70;;;1.60;;
17361;SDS011;8798;51.938;4.348;2022-09-09T07:21:24;3.33;;;1.40;;
17361;SDS011;8798;51.938;4.348;2022-09-09T07:23:53;4.73;;;1.80;;
17361;SDS011;8798;51.938;4.348;2022-09-09T07:26:23;3.77;;;1.83;;
17361;SDS011;8798;51.938;4.348;2022-09-09T07:28:52;4.03;;;1.57;;
17361;SDS011;8798;51.938;4.348;2022-09-09T07:31:22;4.97;;;1.90;;
17361;SDS011;8798;51.938;4.348;2022-09-09T07:33:52;6.47;;;1.90;;
17361;SDS011;8798;51.938;4.348;2022-09-09T07:36:21;4.43;;;1.83;;
17361;SDS011;8798;51.938;4.348;2022-09-09T07:38:55;6.70;;;1.77;;
17361;SDS011;8798;51.938;4.348;2022-09-09T07:41:26;3.70;;;1.50;;
17361;SDS011;8798;51.938;4.348;2022-09-09T07:43:56;5.93;;;1.87;;
17361;SDS011;8798;51.938;4.348;2022-09-09T07:46:25;5.57;;;1.57;;
17361;SDS011;8798;51.938;4.348;2022-09-09T07:48:54;5.40;;;1.30;;
17361;SDS011;8798;51.938;4.348;2022-09-09T07:51:24;4.70;;;1.53;;
17361;SDS011;8798;51.938;4.348;2022-09-09T07:53:53;5.87;;;1.60;;
17361;SDS011;8798;51.938;4.348;2022-09-09T07:56:24;7.77;;;1.93;;
17361;SDS011;8798;51.938;4.348;2022-09-09T07:58:54;6.00;;;1.40;;
17361;SDS011;8798;51.938;4.348;2022-09-09T08:01:25;6.40;;;1.50;;
17361;SDS011;8798;51.938;4.348;2022-09-09T08:03:56;6.20;;;1.40;;
17361;SDS011;8798;51.938;4.348;2022-09-09T08:06:27;4.27;;;1.30;;
17361;SDS011;8798;51.938;4.348;2022-09-09T08:08:56;5.00;;;1.53;;
17361;SDS011;8798;51.938;4.348;2022-09-09T08:11:24;4.27;;;1.40;;
17361;SDS011;8798;51.938;4.348;2022-09-09T08:13:55;7.70;;;1.53;;
17361;SDS011;8798;51.938;4.348;2022-09-09T08:16:28;4.40;;;1.20;;
17361;SDS011;8798;51.938;4.348;2022-09-09T08:18:57;2.57;;;1.27;;
17361;SDS011;8798;51.938;4.348;2022-09-09T08:21:26;3.73;;;1.10;;
17361;SDS011;8798;51.938;4.348;2022-09-09T08:23:56;5.10;;;1.33;;
17361;SDS011;8798;51.938;4.348;2022-09-09T08:26:27;5.03;;;1.30;;
17361;SDS011;8798;51.938;4.348;2022-09-09T08:28:57;3.47;;;1.20;;
17361;SDS011;8798;51.938;4.348;2022-09-09T08:31:26;4.97;;;1.33;;
17361;SDS011;8798;51.938;4.348;2022-09-09T08:33:55;3.37;;;1.47;;
17361;SDS011;8798;51.938;4.348;2022-09-09T08:36:27;4.13;;;1.30;;
17361;SDS011;8798;51.938;4.348;2022-09-09T08:38:56;4.23;;;1.40;;
17361;SDS011;8798;51.938;4.348;2022-09-09T08:41:45;4.30;;;1.33;;
17361;SDS011;8798;51.938;4.348;2022-09-09T08:44:37;3.77;;;1.10;;
17361;SDS011;8798;51.938;4.348;2022-09-09T08:47:16;2.73;;;1.10;;
17361;SDS011;8798;51.938;4.348;2022-09-09T08:49:53;4.17;;;1.03;;
17361;SDS011;8798;51.938;4.348;2022-09-09T08:52:36;2.43;;;1.00;;
17361;SDS011;8798;51.938;4.348;2022-09-09T08:55:12;4.30;;;1.40;;
17361;SDS011;8798;51.938;4.348;2022-09-09T08:57:51;3.63;;;1.20;;
17361;SDS011;8798;51.938;4.348;2022-09-09T09:00:21;4.73;;;1.30;;
17361;SDS011;8798;51.938;4.348;2022-09-09T09:02:53;6.13;;;1.40;;
17361;SDS011;8798;51.938;4.348;2022-09-09T09:05:30;3.93;;;1.40;;
17361;SDS011;8798;51.938;4.348;2022-09-09T09:08:04;8.33;;;1.50;;
17361;SDS011;8798;51.938;4.348;2022-09-09T09:10:42;5.27;;;1.23;;
17361;SDS011;8798;51.938;4.348;2022-09-09T09:13:19;3.63;;;1.40;;
17361;SDS011;8798;51.938;4.348;2022-09-09T09:15:51;2.93;;;1.07;;
17361;SDS011;8798;51.938;4.348;2022-09-09T09:18:23;3.47;;;1.00;;
17361;SDS011;8798;51.938;4.348;2022-09-09T09:20:54;5.20;;;1.33;;
17361;SDS011;8798;51.938;4.348;2022-09-09T09:23:29;2.87;;;1.10;;
17361;SDS011;8798;51.938;4.348;2022-09-09T09:26:06;5.37;;;1.20;;
17361;SDS011;8798;51.938;4.348;2022-09-09T09:28:38;6.13;;;1.37;;
17361;SDS011;8798;51.938;4.348;2022-09-09T09:31:09;4.00;;;1.60;;
17361;SDS011;8798;51.938;4.348;2022-09-09T09:33:40;3.17;;;1.30;;
17361;SDS011;8798;51.938;4.348;2022-09-09T09:36:15;3.93;;;1.20;;
17361;SDS011;8798;51.938;4.348;2022-09-09T09:38:53;3.73;;;1.00;;
17361;SDS011;8798;51.938;4.348;2022-09-09T09:41:42;3.93;;;1.10;;
17361;SDS011;8798;51.938;4.348;2022-09-09T09:44:22;3.17;;;1.40;;
17361;SDS011;8798;51.938;4.348;2022-09-09T09:46:51;3.27;;;1.50;;
17361;SDS011;8798;51.938;4.348;2022-09-09T09:49:19;4.87;;;1.40;;
17361;SDS011;8798;51.938;4.348;2022-09-09T09:51:47;4.37;;;1.20;;
17361;SDS011;8798;51.938;4.348;2022-09-09T09:54:17;3.70;;;1.10;;
17361;SDS011;8798;51.938;4.348;2022-09-09T09:56:55;2.23;;;0.90;;
17361;SDS011;8798;51.938;4.348;2022-09-09T09:59:35;2.13;;;0.90;;
17361;SDS011;8798;51.938;4.348;2022-09-09T10:02:16;4.23;;;1.17;;
17361;SDS011;8798;51.938;4.348;2022-09-09T10:04:47;3.00;;;1.03;;
17361;SDS011;8798;51.938;4.348;2022-09-09T10:07:17;3.00;;;1.10;;
17361;SDS011;8798;51.938;4.348;2022-09-09T10:09:46;5.57;;;1.43;;
17361;SDS011;8798;51.938;4.348;2022-09-09T10:12:20;3.00;;;1.20;;
17361;SDS011;8798;51.938;4.348;2022-09-09T10:14:59;4.90;;;1.50;;
17361;SDS011;8798;51.938;4.348;2022-09-09T10:17:33;3.90;;;1.27;;
17361;SDS011;8798;51.938;4.348;2022-09-09T10:20:19;3.67;;;1.20;;
17361;SDS011;8798;51.938;4.348;2022-09-09T10:23:02;5.47;;;1.40;;
17361;SDS011;8798;51.938;4.348;2022-09-09T10:25:44;3.73;;;1.33;;
17361;SDS011;8798;51.938;4.348;2022-09-09T10:28:33;3.97;;;1.30;;
17361;SDS011;8798;51.938;4.348;2022-09-09T10:31:27;3.43;;;1.30;;
17361;SDS011;8798;51.938;4.348;2022-09-09T10:34:06;2.33;;;1.70;;
17361;SDS011;8798;51.938;4.348;2022-09-09T10:36:43;6.17;;;1.30;;
17361;SDS011;8798;51.938;4.348;2022-09-09T10:39:17;5.17;;;1.63;;
17361;SDS011;8798;51.938;4.348;2022-09-09T10:41:58;3.83;;;1.57;;
17361;SDS011;8798;51.938;4.348;2022-09-09T10:44:35;4.87;;;1.63;;
17361;SDS011;8798;51.938;4.348;2022-09-09T10:47:20;4.70;;;1.47;;
17361;SDS011;8798;51.938;4.348;2022-09-09T10:50:09;5.07;;;1.60;;
17361;SDS011;8798;51.938;4.348;2022-09-09T10:52:52;5.67;;;1.87;;
17361;SDS011;8798;51.938;4.348;2022-09-09T10:55:27;2.63;;;1.30;;
17361;SDS011;8798;51.938;4.348;2022-09-09T10:58:03;1.67;;;1.17;;
17361;SDS011;8798;51.938;4.348;2022-09-09T11:00:36;4.13;;;1.50;;
17361;SDS011;8798;51.938;4.348;2022-09-09T11:03:11;2.93;;;1.10;;
17361;SDS011;8798;51.938;4.348;2022-09-09T11:05:47;3.53;;;1.50;;
17361;SDS011;8798;51.938;4.348;2022-09-09T11:08:20;7.00;;;1.60;;
17361;SDS011;8798;51.938;4.348;2022-09-09T11:10:51;2.83;;;1.20;;
17361;SDS011;8798;51.938;4.348;2022-09-09T11:13:28;4.47;;;1.60;;
17361;SDS011;8798;51.938;4.348;2022-09-09T11:16:03;4.77;;;1.50;;
17361;SDS011;8798;51.938;4.348;2022-09-09T11:18:42;3.40;;;1.40;;
17361;SDS011;8798;51.938;4.348;2022-09-09T11:21:13;3.07;;;1.33;;
17361;SDS011;8798;51.938;4.348;2022-09-09T11:23:50;4.03;;;1.33;;
17361;SDS011;8798;51.938;4.348;2022-09-09T11:26:23;2.67;;;1.40;;
17361;SDS011;8798;51.938;4.348;2022-09-09T11:29:02;2.80;;;1.40;;
17361;SDS011;8798;51.938;4.348;2022-09-09T11:31:44;3.27;;;1.40;;
17361;SDS011;8798;51.938;4.348;2022-09-09T11:34:19;4.60;;;1.67;;
17361;SDS011;8798;51.938;4.348;2022-09-09T11:36:56;6.03;;;1.60;;
17361;SDS011;8798;51.938;4.348;2022-09-09T11:39:49;2.77;;;1.43;;
17361;SDS011;8798;51.938;4.348;2022-09-09T11:42:28;4.23;;;1.40;;
17361;SDS011;8798;51.938;4.348;2022-09-09T11:44:55;4.37;;;1.70;;
17361;SDS011;8798;51.938;4.348;2022-09-09T11:47:24;4.87;;;1.60;;
17361;SDS011;8798;51.938;4.348;2022-09-09T11:50:08;3.10;;;1.40;;
17361;SDS011;8798;51.938;4.348;2022-09-09T11:52:39;5.03;;;1.93;;
17361;SDS011;8798;51.938;4.348;2022-09-09T11:55:20;4.70;;;1.70;;
17361;SDS011;8798;51.938;4.348;2022-09-09T11:57:57;4.23;;;1.50;;
17361;SDS011;8798;51.938;4.348;2022-09-09T12:00:33;4.37;;;1.33;;
17361;SDS011;8798;51.938;4.348;2022-09-09T12:03:03;3.47;;;1.47;;
17361;SDS011;8798;51.938;4.348;2022-09-09T12:05:39;5.33;;;1.67;;
17361;SDS011;8798;51.938;4.348;2022-09-09T12:08:09;2.73;;;1.13;;
17361;SDS011;8798;51.938;4.348;2022-09-09T12:10:52;3.20;;;1.40;;
17361;SDS011;8798;51.938;4.348;2022-09-09T12:13:21;2.90;;;1.60;;
17361;SDS011;8798;51.938;4.348;2022-09-09T12:15:51;3.77;;;1.20;;
17361;SDS011;8798;51.938;4.348;2022-09-09T12:18:24;6.10;;;1.50;;
17361;SDS011;8798;51.938;4.348;2022-09-09T12:20:57;2.00;;;1.27;;
17361;SDS011;8798;51.938;4.348;2022-09-09T12:23:36;3.40;;;1.40;;
17361;SDS011;8798;51.938;4.348;2022-09-09T12:26:20;2.70;;;1.40;;
17361;SDS011;8798;51.938;4.348;2022-09-09T12:29:02;2.87;;;1.20;;
17361;SDS011;8798;51.938;4.348;2022-09-09T12:31:40;2.70;;;1.30;;
17361;SDS011;8798;51.938;4.348;2022-09-09T12:34:14;4.30;;;1.00;;
17361;SDS011;8798;51.938;4.348;2022-09-09T12:36:48;3.13;;;1.07;;
17361;SDS011;8798;51.938;4.348;2022-09-09T12:39:24;2.03;;;1.20;;
17361;SDS011;8798;51.938;4.348;2022-09-09T12:41:58;3.20;;;1.20;;
17361;SDS011;8798;51.938;4.348;2022-09-09T12:44:26;2.00;;;1.00;;
17361;SDS011;8798;51.938;4.348;2022-09-09T12:46:55;1.57;;;0.97;;
17361;SDS011;8798;51.938;4.348;2022-09-09T12:49:28;3.10;;;0.87;;
17361;SDS011;8798;51.938;4.348;2022-09-09T12:52:02;2.97;;;1.10;;
17361;SDS011;8798;51.938;4.348;2022-09-09T12:54:33;1.23;;;0.70;;
17361;SDS011;8798;51.938;4.348;2022-09-09T12:57:02;2.73;;;0.83;;
17361;SDS011;8798;51.938;4.348;2022-09-09T12:59:35;2.17;;;1.00;;
17361;SDS011;8798;51.938;4.348;2022-09-09T13:02:11;1.53;;;0.70;;
17361;SDS011;8798;51.938;4.348;2022-09-09T13:04:45;2.53;;;0.80;;
17361;SDS011;8798;51.938;4.348;2022-09-09T13:07:15;0.90;;;0.80;;
17361;SDS011;8798;51.938;4.348;2022-09-09T13:09:43;2.50;;;0.70;;
17361;SDS011;8798;51.938;4.348;2022-09-09T13:12:13;2.03;;;0.80;;
17361;SDS011;8798;51.938;4.348;2022-09-09T13:14:43;1.73;;;0.70;;
17361;SDS011;8798;51.938;4.348;2022-09-09T13:17:18;3.30;;;0.83;;
17361;SDS011;8798;51.938;4.348;2022-09-09T13:19:48;2.00;;;0.63;;
17361;SDS011;8798;51.938;4.348;2022-09-09T13:22:24;2.50;;;1.00;;
17361;SDS011;8798;51.938;4.348;2022-09-09T13:25:01;4.43;;;0.80;;
17361;SDS011;8798;51.938;4.348;2022-09-09T13:27:32;1.00;;;0.60;;
17361;SDS011;8798;51.938;4.348;2022-09-09T13:30:19;6.17;;;0.97;;
17361;SDS011;8798;51.938;4.348;2022-09-09T13:32:59;4.87;;;1.10;;
17361;SDS011;8798;51.938;4.348;2022-09-09T13:35:31;2.60;;;0.90;;
17361;SDS011;8798;51.938;4.348;2022-09-09T13:38:00;1.27;;;0.90;;
17361;SDS011;8798;51.938;4.348;2022-09-09T13:40:34;1.60;;;0.77;;
17361;SDS011;8798;51.938;4.348;2022-09-09T13:43:02;2.87;;;1.00;;
17361;SDS011;8798;51.938;4.348;2022-09-09T13:45:31;1.87;;;0.70;;
17361;SDS011;8798;51.938;4.348;2022-09-09T13:48:08;1.53;;;0.90;;
17361;SDS011;8798;51.938;4.348;2022-09-09T13:50:41;2.37;;;0.93;;
17361;SDS011;8798;51.938;4.348;2022-09-09T13:53:10;1.73;;;0.73;;
17361;SDS011;8798;51.938;4.348;2022-09-09T13:55:37;1.97;;;0.60;;
17361;SDS011;8798;51.938;4.348;2022-09-09T13:58:05;2.13;;;0.53;;
17361;SDS011;8798;51.938;4.348;2022-09-09T14:00:34;2.33;;;0.77;;
17361;SDS011;8798;51.938;4.348;2022-09-09T14:03:02;1.77;;;0.67;;
17361;SDS011;8798;51.938;4.348;2022-09-09T14:05:31;0.70;;;0.60;;
17361;SDS011;8798;51.938;4.348;2022-09-09T14:07:59;1.93;;;0.70;;
17361;SDS011;8798;51.938;4.348;2022-09-09T14:10:29;2.20;;;0.73;;
17361;SDS011;8798;51.938;4.348;2022-09-09T14:12:57;2.13;;;0.73;;
17361;SDS011;8798;51.938;4.348;2022-09-09T14:15:25;2.83;;;0.90;;
17361;SDS011;8798;51.938;4.348;2022-09-09T14:17:53;3.90;;;0.87;;
17361;SDS011;8798;51.938;4.348;2022-09-09T14:20:20;2.40;;;0.80;;
17361;SDS011;8798;51.938;4.348;2022-09-09T14:22:48;2.27;;;0.70;;
17361;SDS011;8798;51.938;4.348;2022-09-09T14:25:16;1.87;;;0.73;;
17361;SDS011;8798;51.938;4.348;2022-09-09T14:27:45;4.23;;;1.07;;
17361;SDS011;8798;51.938;4.348;2022-09-09T14:30:13;3.23;;;0.80;;
17361;SDS011;8798;51.938;4.348;2022-09-09T14:32:40;4.80;;;1.07;;
17361;SDS011;8798;51.938;4.348;2022-09-09T14:35:08;1.50;;;0.70;;
17361;SDS011;8798;51.938;4.348;2022-09-09T14:37:36;2.33;;;0.67;;
17361;SDS011;8798;51.938;4.348;2022-09-09T14:40:05;2.60;;;1.10;;
17361;SDS011;8798;51.938;4.348;2022-09-09T14:42:34;2.17;;;0.77;;
17361;SDS011;8798;51.938;4.348;2022-09-09T14:45:03;3.23;;;0.80;;
17361;SDS011;8798;51.938;4.348;2022-09-09T14:47:32;2.97;;;0.80;;
17361;SDS011;8798;51.938;4.348;2022-09-09T14:50:00;3.00;;;0.90;;
17361;SDS011;8798;51.938;4.348;2022-09-09T14:52:30;3.33;;;0.90;;
17361;SDS011;8798;51.938;4.348;2022-09-09T14:54:58;1.73;;;0.63;;
17361;SDS011;8798;51.938;4.348;2022-09-09T14:57:25;2.77;;;0.53;;
17361;SDS011;8798;51.938;4.348;2022-09-09T14:59:53;1.77;;;0.80;;
17361;SDS011;8798;51.938;4.348;2022-09-09T15:02:22;2.67;;;0.80;;
17361;SDS011;8798;51.938;4.348;2022-09-09T15:04:50;4.20;;;1.10;;
17361;SDS011;8798;51.938;4.348;2022-09-09T15:07:18;2.20;;;0.80;;
17361;SDS011;8798;51.938;4.348;2022-09-09T15:09:46;2.13;;;0.70;;
17361;SDS011;8798;51.938;4.348;2022-09-09T15:12:14;4.47;;;1.10;;
17361;SDS011;8798;51.938;4.348;2022-09-09T15:14:44;2.13;;;0.90;;
17361;SDS011;8798;51.938;4.348;2022-09-09T15:17:12;3.27;;;0.90;;
17361;SDS011;8798;51.938;4.348;2022-09-09T15:19:42;2.20;;;1.20;;
17361;SDS011;8798;51.938;4.348;2022-09-09T15:22:09;2.77;;;1.30;;
17361;SDS011;8798;51.938;4.348;2022-09-09T15:24:37;3.13;;;1.23;;
17361;SDS011;8798;51.938;4.348;2022-09-09T15:27:05;3.23;;;1.40;;
17361;SDS011;8798;51.938;4.348;2022-09-09T15:29:32;2.63;;;1.40;;
17361;SDS011;8798;51.938;4.348;2022-09-09T15:32:00;3.67;;;1.70;;
17361;SDS011;8798;51.938;4.348;2022-09-09T15:34:28;2.60;;;1.73;;